Time;durP1;ratioP1;P1;durP2;ratioP2;P2;SDS_P1;SDS_P2;PMS_P1;PMS_P2;Temp;Humidity;BMP_temperature;BMP_pressure;BME280_temperature;BME280_humidity;BME280_pressure;Samples;Min_cycle;Max_cycle;Signal;HPM_P1;HPM_P2
2023/12/28 00:01:12;;;;;;;0.60;0.40;;;17.20;55.40;;;;;;6130703;23;20579;-85
2023/12/28 00:03:40;;;;;;;1.15;0.70;;;17.30;55.30;;;;;;6130935;23;20146;-83
2023/12/28 00:06:06;;;;;;;1.25;0.68;;;17.20;55.10;;;;;;6156740;23;20472;-84
2023/12/28 00:08:32;;;;;;;0.63;0.57;;;17.30;55.20;;;;;;6135480;23;20241;-84
2023/12/28 00:10:58;;;;;;;0.88;0.60;;;17.30;55.50;;;;;;6188235;23;20165;-84
2023/12/28 00:13:24;;;;;;;0.98;0.50;;;17.20;55.10;;;;;;6163591;23;20150;-83
2023/12/28 00:15:50;;;;;;;0.70;0.50;;;17.30;55.30;;;;;;6188255;23;20237;-83
2023/12/28 00:18:16;;;;;;;1.38;0.50;;;17.30;55.20;;;;;;6162000;23;20173;-84
2023/12/28 00:20:44;;;;;;;1.02;0.82;;;17.20;55.20;;;;;;6135771;23;20591;-87
2023/12/28 00:23:10;;;;;;;1.42;0.50;;;17.20;55.20;;;;;;6188195;23;20161;-84
2023/12/28 00:25:36;;;;;;;1.20;0.60;;;17.20;55.30;;;;;;6187233;23;20150;-85
2023/12/28 00:28:02;;;;;;;0.68;0.50;;;17.20;55.30;;;;;;6139223;23;20160;-84
2023/12/28 00:30:29;;;;;;;0.82;0.50;;;17.20;55.30;;;;;;6211883;23;20134;-85
2023/12/28 00:32:56;;;;;;;1.00;0.60;;;17.20;55.10;;;;;;6186497;23;20184;-85
2023/12/28 00:35:24;;;;;;;0.80;0.50;;;17.10;55.30;;;;;;6138790;23;20150;-83
2023/12/28 00:37:49;;;;;;;0.80;0.55;;;17.20;55.20;;;;;;6115695;23;20209;-85
2023/12/28 00:40:15;;;;;;;1.08;0.55;;;17.20;55.30;;;;;;6192720;23;20157;-84
2023/12/28 00:42:41;;;;;;;0.60;0.45;;;17.20;55.20;;;;;;6133772;23;20182;-83
2023/12/28 00:45:08;;;;;;;0.45;0.40;;;17.20;55.30;;;;;;6134886;23;20203;-84
2023/12/28 00:47:34;;;;;;;1.25;0.60;;;17.20;55.30;;;;;;6133170;23;20163;-82
2023/12/28 00:49:59;;;;;;;0.68;0.50;;;17.20;55.30;;;;;;6157108;23;20140;-84
2023/12/28 00:52:25;;;;;;;0.50;0.50;;;17.10;55.30;;;;;;6152129;23;20171;-83
2023/12/28 00:54:51;;;;;;;1.52;0.43;;;17.20;55.20;;;;;;6153336;23;20659;-84
2023/12/28 00:57:17;;;;;;;0.82;0.50;;;17.20;55.30;;;;;;6128104;23;20766;-84
2023/12/28 00:59:43;;;;;;;0.73;0.65;;;17.20;55.40;;;;;;6151200;23;20198;-85
2023/12/28 01:02:09;;;;;;;1.10;0.70;;;17.20;55.20;;;;;;6125613;23;20151;-86
2023/12/28 01:04:35;;;;;;;0.40;0.40;;;17.20;55.40;;;;;;6151386;23;20199;-84
2023/12/28 01:07:02;;;;;;;0.85;0.45;;;17.20;55.40;;;;;;6126264;23;20483;-84
2023/12/28 01:09:28;;;;;;;1.02;0.63;;;17.20;55.40;;;;;;6125412;23;20152;-85
2023/12/28 01:11:54;;;;;;;0.50;0.50;;;17.20;55.10;;;;;;6124200;23;20755;-84
2023/12/28 01:14:20;;;;;;;0.60;0.50;;;17.10;55.40;;;;;;6156631;23;20586;-86
2023/12/28 01:16:45;;;;;;;0.85;0.60;;;17.10;55.30;;;;;;6137908;23;20731;-85
2023/12/28 01:19:11;;;;;;;0.70;0.50;;;17.10;55.40;;;;;;6186437;23;20144;-85
2023/12/28 01:21:37;;;;;;;0.82;0.50;;;17.10;55.00;;;;;;6161943;23;20220;-84
2023/12/28 01:24:03;;;;;;;0.93;0.50;;;17.10;55.40;;;;;;6186836;23;20130;-85
2023/12/28 01:26:29;;;;;;;0.68;0.47;;;17.00;55.10;;;;;;6186554;23;20139;-83
2023/12/28 01:28:54;;;;;;;0.95;0.60;;;17.10;55.50;;;;;;6187541;23;20134;-83
2023/12/28 01:31:20;;;;;;;0.95;0.70;;;17.10;55.30;;;;;;6185220;23;20153;-84
2023/12/28 01:33:46;;;;;;;0.50;0.43;;;17.00;55.20;;;;;;6183735;23;20192;-86
2023/12/28 01:36:18;;;;;;;0.65;0.50;;;17.10;55.20;;;;;;6133818;23;20185;-85
2023/12/28 01:38:44;;;;;;;1.13;0.55;;;17.10;55.30;;;;;;6159522;23;20134;-83
2023/12/28 01:41:10;;;;;;;0.82;0.47;;;17.10;55.30;;;;;;6162940;23;20184;-85
2023/12/28 01:43:35;;;;;;;0.68;0.50;;;17.10;55.40;;;;;;6214079;23;20212;-84
2023/12/28 01:46:01;;;;;;;0.50;0.50;;;17.10;55.50;;;;;;6132991;23;20143;-84
2023/12/28 01:48:27;;;;;;;0.60;0.50;;;17.10;55.50;;;;;;6186157;23;20146;-85
2023/12/28 01:50:53;;;;;;;0.65;0.38;;;17.10;55.40;;;;;;6160766;23;20566;-85
2023/12/28 01:53:19;;;;;;;1.40;0.50;;;17.10;55.50;;;;;;6187589;23;20134;-85
2023/12/28 01:55:45;;;;;;;0.70;0.57;;;17.10;55.40;;;;;;6159349;23;20184;-84
2023/12/28 01:58:11;;;;;;;0.95;0.55;;;17.10;55.40;;;;;;6160802;23;20609;-85
2023/12/28 02:00:38;;;;;;;0.55;0.50;;;17.10;55.30;;;;;;6214357;23;20221;-84
2023/12/28 02:03:05;;;;;;;0.73;0.50;;;17.10;55.60;;;;;;6135387;23;20529;-84
2023/12/28 02:05:31;;;;;;;0.98;0.50;;;17.10;56.20;;;;;;6186999;23;20137;-85
2023/12/28 02:07:57;;;;;;;0.88;0.63;;;17.00;55.30;;;;;;6135967;23;20146;-83
2023/12/28 02:10:22;;;;;;;0.57;0.50;;;17.00;55.60;;;;;;6162767;23;20558;-85
2023/12/28 02:12:49;;;;;;;0.50;0.50;;;17.00;55.50;;;;;;6213875;23;20136;-84
2023/12/28 02:15:15;;;;;;;0.82;0.55;;;17.00;55.50;;;;;;6186723;23;20196;-83
2023/12/28 02:18:10;;;;;;;0.73;0.57;;;17.00;55.50;;;;;;6186988;23;20162;-85
2023/12/28 02:20:36;;;;;;;0.80;0.52;;;17.00;55.50;;;;;;6140450;23;20758;-84
2023/12/28 02:23:02;;;;;;;1.75;0.75;;;17.10;55.40;;;;;;6186856;23;20126;-83
2023/12/28 02:25:28;;;;;;;1.40;0.43;;;17.00;55.50;;;;;;6187138;23;20214;-84
2023/12/28 02:27:56;;;;;;;0.60;0.60;;;17.00;55.40;;;;;;6186801;23;20581;-84
2023/12/28 02:30:22;;;;;;;1.23;0.50;;;17.00;55.20;;;;;;6135758;23;20488;-85
2023/12/28 02:33:07;;;;;;;0.93;0.57;;;17.00;55.20;;;;;;6162604;23;20221;-86
2023/12/28 02:35:39;;;;;;;0.40;0.40;;;17.00;55.60;;;;;;6183779;23;20469;-85
2023/12/28 02:38:14;;;;;;;1.00;0.52;;;17.00;55.50;;;;;;6137100;23;20633;-84
2023/12/28 02:40:41;;;;;;;1.05;0.75;;;17.00;55.00;;;;;;6124723;23;20159;-84
2023/12/28 02:43:07;;;;;;;0.60;0.60;;;16.90;55.80;;;;;;6123466;23;20222;-84
2023/12/28 02:45:34;;;;;;;1.17;0.55;;;16.90;55.60;;;;;;6150992;23;20538;-87
2023/12/28 02:50:30;;;;;;;0.55;0.50;;;17.00;55.40;;;;;;6154046;23;20198;-84
2023/12/28 02:53:16;;;;;;;0.63;0.50;;;16.90;55.70;;;;;;6158236;23;20127;-84
2023/12/28 02:55:42;;;;;;;0.82;0.52;;;16.90;55.50;;;;;;6080811;23;20169;-84
2023/12/28 02:58:08;;;;;;;0.70;0.50;;;16.90;55.80;;;;;;6211431;23;20203;-84
2023/12/28 03:00:34;;;;;;;0.77;0.50;;;16.90;55.80;;;;;;6183392;23;20221;-83
2023/12/28 03:02:59;;;;;;;1.23;0.50;;;16.90;55.80;;;;;;6185380;23;20561;-84
2023/12/28 03:05:25;;;;;;;1.08;0.57;;;16.90;55.70;;;;;;6187062;23;20229;-85
2023/12/28 03:07:51;;;;;;;1.45;0.68;;;16.90;55.80;;;;;;6211827;23;20581;-83
2023/12/28 03:10:17;;;;;;;0.50;0.50;;;16.90;55.70;;;;;;6161577;23;20454;-84
2023/12/28 03:12:43;;;;;;;0.85;0.70;;;16.90;55.90;;;;;;6156588;23;20715;-83
2023/12/28 03:15:08;;;;;;;0.73;0.50;;;16.90;55.80;;;;;;6183749;23;20150;-85
2023/12/28 03:17:36;;;;;;;1.05;0.70;;;16.90;55.90;;;;;;6138368;23;20200;-85
2023/12/28 03:20:02;;;;;;;0.80;0.55;;;16.90;55.80;;;;;;6186178;23;20566;-84
2023/12/28 03:22:28;;;;;;;0.50;0.40;;;16.90;55.80;;;;;;6160188;23;20146;-85
2023/12/28 03:24:53;;;;;;;0.70;0.60;;;16.90;55.70;;;;;;6212190;23;20145;-83
2023/12/28 03:27:19;;;;;;;0.98;0.68;;;16.90;55.80;;;;;;6163464;23;20570;-85
2023/12/28 03:29:45;;;;;;;1.55;0.70;;;16.80;55.90;;;;;;6162188;23;20472;-85
2023/12/28 03:32:11;;;;;;;0.63;0.40;;;16.80;56.00;;;;;;6137955;23;20158;-84
2023/12/28 03:34:37;;;;;;;1.20;0.55;;;16.80;55.80;;;;;;6162112;23;20146;-84
2023/12/28 03:37:02;;;;;;;0.68;0.55;;;16.80;55.80;;;;;;6161867;23;20185;-84
2023/12/28 03:39:28;;;;;;;1.17;0.55;;;16.80;55.90;;;;;;6160325;23;20146;-85
2023/12/28 03:41:54;;;;;;;0.82;0.50;;;16.80;55.50;;;;;;6136727;23;20488;-84
2023/12/28 03:44:20;;;;;;;0.95;0.65;;;16.90;55.70;;;;;;6161997;23;20138;-83
2023/12/28 03:46:48;;;;;;;1.17;0.50;;;16.90;55.60;;;;;;6162000;23;20472;-84
2023/12/28 03:49:17;;;;;;;0.82;0.50;;;16.90;55.80;;;;;;6187924;23;20131;-83
2023/12/28 03:51:43;;;;;;;0.68;0.50;;;16.80;55.80;;;;;;6162894;23;20138;-83
2023/12/28 03:54:08;;;;;;;0.50;0.43;;;16.80;55.60;;;;;;6187961;23;20130;-84
2023/12/28 03:56:35;;;;;;;1.20;0.70;;;16.90;55.50;;;;;;6162421;23;20645;-84
2023/12/28 04:01:26;;;;;;;0.63;0.60;;;16.90;55.70;;;;;;6212705;23;20206;-85
2023/12/28 04:03:52;;;;;;;0.50;0.40;;;16.80;55.70;;;;;;6186605;23;20135;-84
2023/12/28 04:06:18;;;;;;;1.23;0.60;;;16.80;55.80;;;;;;6160284;23;20158;-84
2023/12/28 04:08:44;;;;;;;0.85;0.50;;;16.80;55.60;;;;;;6186297;23;20602;-85
2023/12/28 04:11:09;;;;;;;1.42;0.50;;;16.90;55.60;;;;;;6157865;23;20637;-84
2023/12/28 04:13:35;;;;;;;0.98;0.50;;;16.80;55.70;;;;;;6163479;23;20142;-85
2023/12/28 04:16:01;;;;;;;0.68;0.50;;;16.80;55.80;;;;;;6186777;23;20213;-85
2023/12/28 04:18:27;;;;;;;0.77;0.60;;;16.80;55.70;;;;;;6189458;23;20464;-84
2023/12/28 04:20:53;;;;;;;0.50;0.50;;;16.80;55.70;;;;;;6161824;23;20161;-84
2023/12/28 04:23:19;;;;;;;0.50;0.50;;;16.90;55.70;;;;;;6138942;23;20519;-84
2023/12/28 04:25:44;;;;;;;0.65;0.63;;;16.80;55.70;;;;;;6182042;23;20645;-83
2023/12/28 04:28:10;;;;;;;1.02;0.60;;;16.80;55.80;;;;;;6153777;23;20735;-85
2023/12/28 04:30:36;;;;;;;0.85;0.82;;;16.80;55.80;;;;;;6182696;23;20139;-84
2023/12/28 04:33:02;;;;;;;0.52;0.50;;;16.80;55.60;;;;;;6153752;23;20161;-83
2023/12/28 04:35:28;;;;;;;1.00;0.60;;;16.80;55.80;;;;;;6156614;23;20211;-83
2023/12/28 04:37:54;;;;;;;0.70;0.60;;;16.80;55.80;;;;;;6182276;23;20589;-84
2023/12/28 04:40:20;;;;;;;0.73;0.60;;;16.90;55.80;;;;;;6132752;23;20206;-85
2023/12/28 04:42:46;;;;;;;0.77;0.55;;;16.80;55.80;;;;;;6134611;23;20250;-85
2023/12/28 04:45:14;;;;;;;1.08;0.40;;;16.80;55.80;;;;;;6183161;23;20594;-84
2023/12/28 04:47:40;;;;;;;0.82;0.60;;;16.80;55.70;;;;;;6156954;23;20142;-84
2023/12/28 04:50:06;;;;;;;0.88;0.60;;;16.80;55.70;;;;;;6132923;23;20147;-85
2023/12/28 04:52:32;;;;;;;0.95;0.47;;;16.80;55.90;;;;;;6151757;23;20214;-83
2023/12/28 04:54:58;;;;;;;0.70;0.60;;;16.70;55.80;;;;;;6128571;23;20182;-84
2023/12/28 04:57:25;;;;;;;0.57;0.57;;;16.70;55.80;;;;;;6152677;23;20171;-84
2023/12/28 04:59:51;;;;;;;0.50;0.43;;;16.80;55.80;;;;;;6150851;23;20163;-85
2023/12/28 05:02:17;;;;;;;1.05;0.60;;;16.70;55.80;;;;;;6102187;23;20199;-84
2023/12/28 05:04:42;;;;;;;1.45;0.52;;;16.70;55.80;;;;;;6128435;23;20471;-85
2023/12/28 05:07:08;;;;;;;1.08;0.60;;;16.70;55.80;;;;;;6151862;23;20139;-83
2023/12/28 05:09:34;;;;;;;0.70;0.60;;;16.70;55.80;;;;;;6151488;23;20209;-84
2023/12/28 05:12:00;;;;;;;0.90;0.60;;;16.70;55.80;;;;;;6133792;23;20550;-86
2023/12/28 05:14:27;;;;;;;0.65;0.40;;;16.70;55.80;;;;;;6131565;23;20567;-87
2023/12/28 05:16:52;;;;;;;1.20;0.77;;;16.70;55.60;;;;;;6133198;23;20493;-84
2023/12/28 05:19:18;;;;;;;0.80;0.55;;;16.70;55.70;;;;;;6129896;23;20595;-84
2023/12/28 05:21:44;;;;;;;1.00;0.50;;;16.70;55.80;;;;;;6133771;23;20740;-84
2023/12/28 05:24:09;;;;;;;1.00;0.60;;;16.70;55.80;;;;;;6108941;23;20169;-86
2023/12/28 05:26:35;;;;;;;0.75;0.70;;;16.70;55.60;;;;;;6109985;23;20543;-85
2023/12/28 05:29:01;;;;;;;0.55;0.50;;;16.70;55.90;;;;;;6157897;23;20139;-86
2023/12/28 05:31:27;;;;;;;1.27;0.65;;;16.70;56.00;;;;;;6129875;23;20138;-83
2023/12/28 05:33:53;;;;;;;0.82;0.40;;;16.70;55.60;;;;;;6156586;23;20132;-84
2023/12/28 05:36:22;;;;;;;0.77;0.60;;;16.70;55.80;;;;;;6132867;23;20367;-85
2023/12/28 05:38:48;;;;;;;0.55;0.55;;;16.70;55.80;;;;;;6129771;23;20206;-85
2023/12/28 05:41:14;;;;;;;0.63;0.50;;;16.70;55.90;;;;;;6129745;23;20521;-85
2023/12/28 05:43:39;;;;;;;0.65;0.57;;;16.70;55.90;;;;;;6106743;23;20744;-84
2023/12/28 05:46:05;;;;;;;0.50;0.50;;;16.70;55.70;;;;;;6134489;23;20136;-83
2023/12/28 05:48:31;;;;;;;0.57;0.50;;;16.70;55.80;;;;;;6155860;23;20166;-83
2023/12/28 05:50:58;;;;;;;0.40;0.40;;;16.70;55.90;;;;;;6131238;23;20139;-83
2023/12/28 05:53:24;;;;;;;1.02;0.50;;;16.60;55.80;;;;;;6157941;23;20131;-84
2023/12/28 05:55:50;;;;;;;0.57;0.50;;;16.70;55.80;;;;;;6133832;23;20139;-85
2023/12/28 05:58:16;;;;;;;0.93;0.60;;;16.70;55.80;;;;;;6156186;23;20216;-85
2023/12/28 06:00:42;;;;;;;0.70;0.50;;;16.70;55.80;;;;;;6156592;23;20135;-84
2023/12/28 06:03:08;;;;;;;0.60;0.50;;;16.70;55.80;;;;;;6132509;23;20147;-84
2023/12/28 06:05:34;;;;;;;1.15;0.70;;;16.70;55.90;;;;;;6133396;23;20214;-83
2023/12/28 06:08:00;;;;;;;1.80;0.80;;;16.60;55.90;;;;;;6132245;23;20146;-83
2023/12/28 06:10:25;;;;;;;0.73;0.50;;;16.70;55.90;;;;;;6105765;23;20486;-84
2023/12/28 06:12:51;;;;;;;0.50;0.50;;;16.60;55.70;;;;;;6179700;23;20570;-83
2023/12/28 06:15:17;;;;;;;0.77;0.50;;;16.70;55.90;;;;;;6156360;23;21310;-84
2023/12/28 06:17:43;;;;;;;1.30;0.70;;;16.70;55.80;;;;;;6181404;23;20170;-85
2023/12/28 06:20:09;;;;;;;1.00;0.60;;;16.70;55.80;;;;;;6156802;23;20139;-84
2023/12/28 06:22:38;;;;;;;0.98;0.70;;;16.70;55.90;;;;;;6157317;23;20135;-85
2023/12/28 06:25:07;;;;;;;0.65;0.47;;;16.70;55.60;;;;;;6156474;23;20143;-86
2023/12/28 06:27:36;;;;;;;0.80;0.63;;;16.70;55.80;;;;;;6182158;23;20265;-85
2023/12/28 06:30:02;;;;;;;1.02;0.60;;;16.80;55.70;;;;;;6181635;23;20170;-87
2023/12/28 06:32:29;;;;;;;0.80;0.50;;;16.70;55.80;;;;;;6184872;23;20650;-84
2023/12/28 06:34:55;;;;;;;1.23;0.70;;;16.70;55.60;;;;;;6213268;23;20151;-83
2023/12/28 06:37:20;;;;;;;1.23;0.80;;;16.70;55.70;;;;;;6187295;23;20542;-82
2023/12/28 06:39:46;;;;;;;0.82;0.75;;;16.70;55.50;;;;;;6189073;23;20566;-82
2023/12/28 06:42:15;;;;;;;0.63;0.50;;;16.70;55.40;;;;;;6186518;23;20571;-85
2023/12/28 06:44:42;;;;;;;0.68;0.50;;;16.70;55.70;;;;;;6159748;23;20721;-83
2023/12/28 06:47:07;;;;;;;0.65;0.50;;;16.70;55.70;;;;;;6185589;23;20155;-86
2023/12/28 06:49:36;;;;;;;1.00;0.57;;;16.70;55.50;;;;;;6185801;23;20158;-85
2023/12/28 06:52:02;;;;;;;0.75;0.57;;;16.70;55.60;;;;;;6183914;23;20223;-85
2023/12/28 06:54:27;;;;;;;0.85;0.52;;;16.70;55.60;;;;;;6180642;23;20559;-84
2023/12/28 06:56:53;;;;;;;1.27;0.65;;;16.70;55.50;;;;;;6184777;23;20163;-84
2023/12/28 06:59:19;;;;;;;0.68;0.50;;;16.70;55.60;;;;;;6181634;23;20163;-87
2023/12/28 07:01:45;;;;;;;0.98;0.40;;;16.70;55.60;;;;;;6156235;23;20143;-85
2023/12/28 07:04:12;;;;;;;1.20;0.90;;;16.70;55.50;;;;;;6181102;23;20161;-83
2023/12/28 07:06:37;;;;;;;1.33;0.60;;;16.70;55.50;;;;;;6156002;23;20182;-85
2023/12/28 07:09:04;;;;;;;1.02;0.47;;;16.70;55.50;;;;;;6155493;23;20154;-85
2023/12/28 07:11:30;;;;;;;0.77;0.50;;;16.70;55.10;;;;;;6132454;23;20202;-85
2023/12/28 07:13:56;;;;;;;0.65;0.50;;;16.70;55.40;;;;;;6157319;23;20209;-85
2023/12/28 07:16:22;;;;;;;1.17;0.70;;;16.70;55.10;;;;;;6183238;23;20167;-86
2023/12/28 07:18:48;;;;;;;1.33;0.40;;;16.80;54.90;;;;;;6128813;23;20162;-85
2023/12/28 07:21:14;;;;;;;0.82;0.50;;;16.70;54.90;;;;;;6130868;23;20481;-87
2023/12/28 07:23:41;;;;;;;0.77;0.50;;;16.80;54.80;;;;;;6156661;23;20155;-83
2023/12/28 07:26:07;;;;;;;0.90;0.57;;;16.80;54.60;;;;;;6133820;23;20538;-86
2023/12/28 07:28:35;;;;;;;0.60;0.50;;;16.90;54.10;;;;;;6162179;23;20462;-83
2023/12/28 07:31:03;;;;;;;0.55;0.40;;;16.90;54.50;;;;;;6160131;23;20206;-85
2023/12/28 07:33:29;;;;;;;0.70;0.50;;;16.90;54.30;;;;;;6184938;23;20458;-85
2023/12/28 07:35:54;;;;;;;0.40;0.40;;;16.90;54.00;;;;;;6173631;23;20139;-86
2023/12/28 07:38:20;;;;;;;0.50;0.50;;;16.80;54.80;;;;;;6191430;23;20985;-85
2023/12/28 07:40:47;;;;;;;0.95;0.60;;;16.80;54.50;;;;;;6168848;23;20147;-84
2023/12/28 07:43:14;;;;;;;1.67;0.60;;;16.90;55.10;;;;;;6163553;23;20154;-85
2023/12/28 07:45:41;;;;;;;0.63;0.45;;;16.80;54.40;;;;;;6162769;23;20221;-86
2023/12/28 07:48:07;;;;;;;0.60;0.60;;;16.80;54.40;;;;;;6137909;23;20234;-85
2023/12/28 07:50:34;;;;;;;0.65;0.50;;;16.80;54.50;;;;;;6162983;23;20158;-87
2023/12/28 07:53:12;;;;;;;0.70;0.55;;;16.80;54.20;;;;;;6162304;23;20151;-87
2023/12/28 07:55:44;;;;;;;0.43;0.40;;;16.80;54.50;;;;;;6112295;23;20161;-87
2023/12/28 07:58:12;;;;;;;0.57;0.57;;;17.00;54.70;;;;;;6139210;23;20434;-86
2023/12/28 08:00:39;;;;;;;0.73;0.50;;;16.80;54.10;;;;;;6140164;23;20222;-85
2023/12/28 08:03:05;;;;;;;0.70;0.60;;;16.90;54.20;;;;;;6163210;23;20154;-86
2023/12/28 08:05:45;;;;;;;0.77;0.63;;;16.90;54.40;;;;;;6166740;23;20502;-87
2023/12/28 08:08:15;;;;;;;0.40;0.40;;;16.80;54.80;;;;;;6140512;23;20158;-86
2023/12/28 08:10:41;;;;;;;0.50;0.40;;;17.00;53.90;;;;;;6142285;23;20198;-88
2023/12/28 08:13:10;;;;;;;0.50;0.32;;;17.10;53.30;;;;;;6189124;23;20135;-85
2023/12/28 08:15:40;;;;;;;0.98;0.60;;;17.00;53.70;;;;;;6166078;23;20616;-86
2023/12/28 08:18:12;;;;;;;0.88;0.70;;;17.10;53.70;;;;;;6168919;23;20182;-86
2023/12/28 08:20:45;;;;;;;0.82;0.60;;;17.20;53.20;;;;;;6141950;23;20462;-86
2023/12/28 08:23:15;;;;;;;0.85;0.60;;;17.20;53.20;;;;;;6164582;23;20238;-86
2023/12/28 08:25:48;;;;;;;0.55;0.50;;;17.20;53.20;;;;;;6100876;23;20686;-83
2023/12/28 08:28:24;;;;;;;0.52;0.45;;;17.20;53.30;;;;;;6052436;23;20311;-88
2023/12/28 08:30:56;;;;;;;0.60;0.50;;;17.10;53.60;;;;;;6100266;23;20684;-84
2023/12/28 08:36:17;;;;;;;1.33;0.57;;;17.10;53.70;;;;;;5966531;24;20187;-84
2023/12/28 08:38:54;;;;;;;0.60;0.50;;;17.10;54.20;;;;;;5987553;24;20195;-85
2023/12/28 08:41:21;;;;;;;0.80;0.43;;;17.10;53.70;;;;;;5983109;24;20195;-84
2023/12/28 08:43:47;;;;;;;1.23;0.40;;;17.20;54.00;;;;;;5987119;24;20237;-85
2023/12/28 08:46:14;;;;;;;1.23;0.50;;;17.30;53.80;;;;;;5963803;24;20651;-85
2023/12/28 08:48:43;;;;;;;0.40;0.40;;;17.30;53.90;;;;;;5987143;24;20236;-85
2023/12/28 08:51:14;;;;;;;1.45;0.50;;;17.30;53.90;;;;;;5986518;24;20152;-86
2023/12/28 08:53:41;;;;;;;0.88;0.52;;;17.30;53.90;;;;;;5941583;24;20175;-84
2023/12/28 08:56:30;;;;;;;2.05;0.60;;;17.30;53.90;;;;;;5986634;24;20159;-86
2023/12/28 08:58:58;;;;;;;1.42;0.70;;;17.20;54.10;;;;;;5986855;24;20579;-85
2023/12/28 09:01:25;;;;;;;1.88;0.70;;;17.30;54.10;;;;;;5988003;24;20219;-86
2023/12/28 09:03:52;;;;;;;1.70;0.40;;;17.20;53.80;;;;;;6058661;23;20209;-86
2023/12/28 09:06:19;;;;;;;0.73;0.50;;;17.20;54.20;;;;;;6026268;23;20150;-84
2023/12/28 09:08:56;;;;;;;1.30;0.50;;;17.20;53.90;;;;;;6023892;23;20145;-85
2023/12/28 09:11:22;;;;;;;0.82;0.40;;;17.20;53.10;;;;;;6025179;23;20281;-83
2023/12/28 09:13:49;;;;;;;3.03;0.43;;;17.30;53.40;;;;;;6036501;23;20222;-87
2023/12/28 09:16:15;;;;;;;2.03;0.52;;;17.40;53.70;;;;;;6010348;23;20558;-86
2023/12/28 09:18:42;;;;;;;0.40;0.40;;;17.30;53.70;;;;;;6010119;23;20170;-85
2023/12/28 09:21:10;;;;;;;1.20;0.60;;;17.40;53.00;;;;;;5963821;24;20163;-84
2023/12/28 09:23:36;;;;;;;0.55;0.40;;;17.40;53.80;;;;;;6009784;23;20793;-83
2023/12/28 09:26:03;;;;;;;1.67;0.50;;;17.40;53.90;;;;;;6010201;23;20152;-85
2023/12/28 09:28:31;;;;;;;2.13;0.50;;;17.30;53.90;;;;;;5961997;24;20246;-85
2023/12/28 09:30:57;;;;;;;0.80;0.50;;;17.40;53.80;;;;;;5961268;24;20212;-85
2023/12/28 09:33:24;;;;;;;0.63;0.43;;;17.40;53.90;;;;;;5961691;24;20147;-85
2023/12/28 09:35:53;;;;;;;0.65;0.38;;;17.50;53.70;;;;;;5963057;24;20183;-84
2023/12/28 09:38:19;;;;;;;4.10;0.90;;;17.50;53.20;;;;;;5987276;24;20172;-87
2023/12/28 09:41:03;;;;;;;0.80;0.60;;;17.40;53.40;;;;;;5985891;24;20135;-85
2023/12/28 09:43:45;;;;;;;2.15;0.50;;;17.40;53.60;;;;;;6042849;23;20160;-88
2023/12/28 09:46:15;;;;;;;3.10;0.60;;;17.40;53.50;;;;;;6041457;23;20156;-87
2023/12/28 09:48:40;;;;;;;3.65;0.50;;;17.40;54.00;;;;;;6085981;23;20156;-85
2023/12/28 09:51:07;;;;;;;1.90;0.60;;;17.40;53.90;;;;;;6124865;23;20618;-86
2023/12/28 09:53:34;;;;;;;3.05;0.65;;;17.30;54.80;;;;;;6079556;23;20141;-85
2023/12/28 09:56:04;;;;;;;1.73;0.50;;;17.30;54.20;;;;;;6105724;23;20136;-82
2023/12/28 09:58:32;;;;;;;3.88;0.77;;;17.30;54.30;;;;;;6071009;23;20224;-84
2023/12/28 10:00:58;;;;;;;0.80;0.45;;;17.30;54.90;;;;;;6048053;23;20153;-87
2023/12/28 10:03:24;;;;;;;2.42;0.80;;;17.30;54.90;;;;;;6072560;23;20178;-86
2023/12/28 10:05:53;;;;;;;3.42;0.68;;;17.30;54.90;;;;;;6046502;23;20168;-86
2023/12/28 10:08:23;;;;;;;2.67;0.50;;;17.30;55.30;;;;;;6028039;23;20157;-84
2023/12/28 10:10:52;;;;;;;3.05;0.60;;;17.30;55.20;;;;;;6026294;23;20711;-84
2023/12/28 10:13:24;;;;;;;2.90;0.60;;;17.40;55.20;;;;;;6051216;23;20168;-85
2023/12/28 10:16:15;;;;;;;3.20;0.60;;;17.40;54.90;;;;;;6024969;23;20309;-86
2023/12/28 10:18:43;;;;;;;1.75;0.70;;;17.50;54.70;;;;;;6051351;23;20145;-85
2023/12/28 10:21:20;;;;;;;2.55;0.73;;;17.40;55.10;;;;;;6050811;23;20134;-86
2023/12/28 10:24:20;;;;;;;5.13;0.73;;;17.40;54.50;;;;;;6021073;23;20156;-84
2023/12/28 10:26:56;;;;;;;1.85;0.70;;;17.40;55.00;;;;;;6043869;23;20162;-86
2023/12/28 10:29:31;;;;;;;3.50;0.80;;;17.40;54.90;;;;;;6045465;23;20226;-86
2023/12/28 10:32:20;;;;;;;4.60;0.70;;;17.50;54.40;;;;;;6001152;23;20168;-82
2023/12/28 10:34:59;;;;;;;4.35;0.52;;;17.50;54.80;;;;;;6031403;23;20181;-84
2023/12/28 10:37:46;;;;;;;2.72;0.60;;;17.60;54.40;;;;;;6081091;23;20282;-84
2023/12/28 10:40:20;;;;;;;3.85;0.60;;;17.70;54.40;;;;;;6135658;23;20191;-86
2023/12/28 10:43:04;;;;;;;3.15;0.80;;;17.70;54.10;;;;;;6081210;23;20154;-87
2023/12/28 10:45:37;;;;;;;3.15;0.50;;;17.80;54.40;;;;;;6105145;23;20154;-84
2023/12/28 10:48:07;;;;;;;2.10;0.60;;;17.80;54.00;;;;;;6079876;23;20184;-87
2023/12/28 10:50:50;;;;;;;2.47;0.77;;;17.80;52.80;;;;;;6103850;23;20231;-89
2023/12/28 10:56:26;;;;;;;6.38;1.00;;;17.80;53.70;;;;;;6221509;23;20233;-85
2023/12/28 10:59:11;;;;;;;3.83;0.77;;;17.80;54.30;;;;;;6147756;23;20631;-86
2023/12/28 11:01:55;;;;;;;9.27;1.10;;;17.80;53.50;;;;;;6105962;23;20154;-84
2023/12/28 11:04:32;;;;;;;7.22;0.93;;;17.90;54.20;;;;;;6149620;23;20154;-86
2023/12/28 11:07:02;;;;;;;8.32;0.80;;;17.70;54.50;;;;;;6124092;23;20211;-85
2023/12/28 11:09:37;;;;;;;8.35;1.27;;;17.70;54.70;;;;;;6099997;23;20209;-84
2023/12/28 11:12:07;;;;;;;4.35;0.80;;;17.70;54.80;;;;;;6123601;23;20204;-86
2023/12/28 11:14:39;;;;;;;7.82;1.30;;;17.60;55.10;;;;;;6145667;23;20221;-86
2023/12/28 11:17:05;;;;;;;5.63;0.95;;;17.60;55.20;;;;;;6121120;23;20173;-86
2023/12/28 11:19:33;;;;;;;6.57;0.82;;;17.70;54.90;;;;;;6171139;23;20130;-88
2023/12/28 11:22:00;;;;;;;5.32;0.95;;;17.60;55.30;;;;;;6119168;23;20154;-86
2023/12/28 11:24:31;;;;;;;10.20;0.93;;;17.60;55.50;;;;;;6168907;23;20480;-87
2023/12/28 11:27:05;;;;;;;4.53;0.88;;;17.60;55.30;;;;;;6178132;23;20157;-86
2023/12/28 11:29:34;;;;;;;8.98;1.25;;;17.60;55.50;;;;;;6155742;23;20148;-84
2023/12/28 11:32:01;;;;;;;5.40;0.70;;;17.50;55.50;;;;;;6106252;23;20159;-87
2023/12/28 11:34:29;;;;;;;5.15;0.70;;;17.60;55.70;;;;;;6133942;23;20152;-88
2023/12/28 11:36:56;;;;;;;6.07;0.70;;;17.70;54.10;;;;;;6107974;23;20710;-86
2023/12/28 11:39:39;;;;;;;9.85;1.10;;;17.60;55.30;;;;;;6111546;23;20155;-88
2023/12/28 11:42:12;;;;;;;13.00;1.10;;;17.60;56.00;;;;;;6106910;23;20534;-86
2023/12/28 11:44:41;;;;;;;6.05;0.85;;;17.60;55.90;;;;;;6130665;23;20608;-89
2023/12/28 11:47:15;;;;;;;7.47;1.15;;;17.60;56.10;;;;;;6127128;23;20503;-87
2023/12/28 11:49:42;;;;;;;7.07;0.93;;;17.60;56.10;;;;;;6130004;23;20138;-86
2023/12/28 11:52:08;;;;;;;3.67;0.52;;;17.50;55.40;;;;;;6129661;23;20131;-86
2023/12/28 11:54:38;;;;;;;2.55;0.93;;;17.60;55.40;;;;;;6161474;23;20245;-86
2023/12/28 11:57:25;;;;;;;3.15;0.73;;;17.60;55.40;;;;;;6147702;23;20179;-87
2023/12/28 12:00:15;;;;;;;6.68;0.70;;;17.60;55.00;;;;;;6120101;23;20267;-88
2023/12/28 12:02:46;;;;;;;3.97;0.95;;;17.60;55.70;;;;;;6156957;23;20139;-84
2023/12/28 12:08:27;;;;;;;6.70;0.80;;;17.70;55.80;;;;;;6012896;23;20641;-86
2023/12/28 12:11:25;;;;;;;5.43;0.95;;;17.70;55.70;;;;;;5964423;23;20155;-83
2023/12/28 12:13:51;;;;;;;3.28;0.63;;;17.50;56.00;;;;;;5908052;24;20216;-86
2023/12/28 12:16:22;;;;;;;4.25;0.70;;;17.60;56.30;;;;;;5905227;24;20153;-84
2023/12/28 12:18:51;;;;;;;6.38;0.88;;;17.60;56.20;;;;;;5881732;24;20157;-83
2023/12/28 12:21:20;;;;;;;2.33;0.77;;;17.60;56.10;;;;;;5882650;24;20161;-84
2023/12/28 12:23:50;;;;;;;6.88;0.90;;;17.60;56.00;;;;;;5858782;24;20161;-87
2023/12/28 12:26:18;;;;;;;6.80;0.95;;;17.60;56.20;;;;;;5802846;24;20193;-83
2023/12/28 12:28:44;;;;;;;3.55;0.70;;;17.50;56.50;;;;;;5846511;24;20170;-83
2023/12/28 12:31:11;;;;;;;6.40;0.65;;;17.60;56.00;;;;;;5845125;24;20668;-86
2023/12/28 12:33:39;;;;;;;3.05;0.80;;;17.50;56.30;;;;;;5845678;24;20163;-84
2023/12/28 12:36:08;;;;;;;3.75;0.85;;;17.50;56.10;;;;;;5833921;24;20162;-83
2023/12/28 12:39:09;;;;;;;4.05;0.60;;;17.50;56.10;;;;;;5873018;24;20220;-84
2023/12/28 12:41:35;;;;;;;6.50;1.02;;;17.60;55.50;;;;;;5855076;24;20251;-82
2023/12/28 12:44:04;;;;;;;2.58;0.70;;;17.60;55.30;;;;;;5877305;24;20349;-85
2023/12/28 12:46:30;;;;;;;8.25;0.98;;;17.60;55.10;;;;;;5953787;24;20161;-86
2023/12/28 12:49:05;;;;;;;1.92;0.70;;;17.70;55.40;;;;;;5960218;24;20239;-85
2023/12/28 12:51:33;;;;;;;4.90;0.93;;;17.70;55.10;;;;;;6035395;23;20167;-86
2023/12/28 12:53:59;;;;;;;2.65;0.50;;;17.70;55.30;;;;;;6047446;23;20184;-86
2023/12/28 12:56:31;;;;;;;6.45;0.80;;;17.70;55.50;;;;;;6047334;23;20651;-84
2023/12/28 12:58:59;;;;;;;3.53;0.80;;;17.70;55.40;;;;;;6047378;23;20160;-84
2023/12/28 13:01:27;;;;;;;3.53;0.70;;;17.70;55.30;;;;;;6072263;23;20243;-85
2023/12/28 13:03:55;;;;;;;1.77;0.60;;;17.70;55.40;;;;;;6074356;23;20153;-84
2023/12/28 13:06:25;;;;;;;5.80;0.95;;;17.70;56.10;;;;;;6075393;23;20176;-83
2023/12/28 13:08:55;;;;;;;3.65;0.93;;;17.70;56.40;;;;;;6075326;23;20152;-87